createdAt,value
2022-09-29T00:02:14.602Z,1.67
2022-09-29T00:04:41.107Z,2.47
2022-09-29T00:07:07.506Z,2.42
2022-09-29T00:09:33.966Z,1.58
2022-09-29T00:12:00.368Z,3.30
2022-09-29T00:14:26.898Z,3.78
2022-09-29T00:16:53.432Z,1.77
2022-09-29T00:19:19.902Z,1.95
2022-09-29T00:21:46.299Z,2.75
2022-09-29T00:24:12.690Z,1.58
2022-09-29T00:26:39.112Z,1.55
2022-09-29T00:29:05.595Z,4.50
2022-09-29T00:31:32.151Z,1.98
2022-09-29T00:33:58.605Z,1.27
2022-09-29T00:36:25.029Z,1.58
2022-09-29T00:38:51.466Z,1.00
2022-09-29T00:41:18.033Z,1.65
2022-09-29T00:43:44.611Z,2.05
2022-09-29T00:46:11.113Z,2.42
2022-09-29T00:48:37.664Z,2.28
2022-09-29T00:51:04.089Z,1.20
2022-09-29T00:53:30.514Z,1.55
2022-09-29T00:55:56.945Z,1.23
2022-09-29T00:58:23.462Z,3.30
2022-09-29T01:00:50.003Z,2.03
2022-09-29T01:03:16.475Z,3.10
2022-09-29T01:05:42.934Z,2.33
2022-09-29T01:08:09.361Z,2.95
2022-09-29T01:10:35.807Z,3.15
2022-09-29T01:13:02.232Z,2.10
2022-09-29T01:15:28.679Z,4.97
2022-09-29T01:17:55.097Z,1.88
2022-09-29T01:20:21.523Z,1.38
2022-09-29T01:22:47.933Z,2.85
2022-09-29T01:25:14.365Z,3.42
2022-09-29T01:27:40.838Z,2.45
2022-09-29T01:30:07.261Z,3.72
2022-09-29T01:32:33.650Z,2.35
2022-09-29T01:35:00.104Z,2.75
2022-09-29T01:37:26.578Z,1.55
2022-09-29T01:39:53.024Z,2.45
2022-09-29T01:42:19.467Z,2.10
2022-09-29T01:44:45.903Z,2.10
2022-09-29T01:47:12.372Z,3.50
2022-09-29T01:49:38.763Z,2.13
2022-09-29T01:52:05.185Z,1.55
2022-09-29T01:54:31.611Z,1.13
2022-09-29T01:56:58.036Z,2.38
2022-09-29T01:59:24.444Z,3.30
2022-09-29T02:01:50.945Z,2.33
2022-09-29T02:04:17.475Z,1.90
2022-09-29T02:06:44.000Z,3.30
2022-09-29T02:09:10.480Z,4.90
2022-09-29T02:11:36.896Z,1.83
2022-09-29T02:14:03.390Z,2.67
2022-09-29T02:16:29.890Z,1.92
2022-09-29T02:18:58.596Z,1.50
2022-09-29T02:21:25.184Z,3.92
2022-09-29T02:23:51.598Z,2.85
2022-09-29T02:26:18.051Z,2.88
2022-09-29T02:28:44.576Z,4.35
2022-09-29T02:31:11.046Z,2.47
2022-09-29T02:33:38.202Z,4.05
2022-09-29T02:36:04.699Z,2.45
2022-09-29T02:38:31.301Z,1.85
2022-09-29T02:40:57.841Z,1.50
2022-09-29T02:43:24.546Z,2.17
2022-09-29T02:45:51.040Z,2.10
2022-09-29T02:48:17.491Z,2.80
2022-09-29T02:50:44.024Z,1.70
2022-09-29T02:53:10.433Z,3.25
2022-09-29T02:55:37.007Z,2.45
2022-09-29T02:58:03.472Z,1.52
2022-09-29T03:00:30.174Z,2.55
2022-09-29T03:02:56.657Z,1.60
2022-09-29T03:05:23.082Z,1.77
2022-09-29T03:07:49.556Z,3.00
2022-09-29T03:10:16.017Z,2.88
2022-09-29T03:12:42.463Z,2.10
2022-09-29T03:15:08.926Z,1.80
2022-09-29T03:17:35.411Z,1.65
2022-09-29T03:20:01.816Z,2.70
2022-09-29T03:22:28.381Z,2.03
2022-09-29T03:24:55.134Z,1.77
2022-09-29T03:27:21.581Z,5.30
2022-09-29T03:29:48.030Z,2.38
2022-09-29T03:32:14.559Z,3.38
2022-09-29T03:34:40.969Z,3.10
2022-09-29T03:37:07.412Z,1.98
2022-09-29T03:39:33.858Z,2.83
2022-09-29T03:42:00.393Z,2.60
2022-09-29T03:44:26.968Z,2.50
2022-09-29T03:46:53.451Z,2.60
2022-09-29T03:49:20.032Z,5.57
2022-09-29T03:51:46.561Z,2.28
2022-09-29T03:54:13.003Z,3.83
2022-09-29T03:56:39.482Z,3.63
2022-09-29T03:59:05.983Z,5.38
2022-09-29T04:01:32.663Z,3.95
2022-09-29T04:03:59.111Z,5.25
2022-09-29T04:06:25.651Z,6.13
2022-09-29T04:08:52.095Z,3.70
2022-09-29T04:11:18.510Z,5.95
2022-09-29T04:13:44.980Z,5.05
2022-09-29T04:16:11.401Z,3.78
2022-09-29T04:18:37.908Z,5.07
2022-09-29T04:21:04.323Z,3.65
2022-09-29T04:23:30.802Z,3.95
2022-09-29T04:25:57.231Z,4.38
2022-09-29T04:28:23.653Z,2.20
2022-09-29T04:30:50.100Z,1.98
2022-09-29T04:33:16.740Z,2.13
2022-09-29T04:35:43.200Z,2.40
2022-09-29T04:38:09.617Z,2.03
2022-09-29T04:40:36.101Z,3.80
2022-09-29T04:43:02.548Z,1.88
2022-09-29T04:45:28.979Z,2.25
2022-09-29T04:47:55.411Z,1.90
2022-09-29T04:50:22.184Z,1.52
2022-09-29T04:52:49.244Z,2.22
2022-09-29T04:55:16.157Z,2.00
2022-09-29T04:57:42.784Z,2.47
2022-09-29T05:00:09.197Z,2.15
2022-09-29T05:02:35.685Z,2.50
2022-09-29T05:05:02.255Z,1.50
2022-09-29T05:07:28.865Z,1.08
2022-09-29T05:09:55.318Z,3.30
2022-09-29T05:12:21.731Z,3.20
2022-09-29T05:14:48.474Z,3.05
2022-09-29T05:17:14.927Z,2.38
2022-09-29T05:19:41.331Z,2.38
2022-09-29T05:22:07.739Z,3.88
2022-09-29T05:24:34.232Z,2.97
2022-09-29T05:27:00.702Z,3.42
2022-09-29T05:29:27.253Z,2.88
2022-09-29T05:31:53.711Z,2.88
2022-09-29T05:34:20.221Z,3.22
2022-09-29T05:36:46.759Z,6.10
2022-09-29T05:39:13.234Z,3.85
2022-09-29T05:41:39.761Z,9.35
2022-09-29T05:44:06.166Z,3.85
2022-09-29T05:46:32.575Z,3.40
2022-09-29T05:48:59.015Z,4.70
2022-09-29T05:51:25.445Z,4.10
2022-09-29T05:53:52.060Z,5.47
2022-09-29T05:56:18.482Z,3.13
2022-09-29T05:58:44.965Z,2.97
2022-09-29T06:01:11.547Z,6.93
2022-09-29T06:03:38.136Z,4.43
2022-09-29T06:06:04.615Z,3.47
2022-09-29T06:08:31.079Z,3.70
2022-09-29T06:10:57.505Z,4.85
2022-09-29T06:13:23.956Z,3.88
2022-09-29T06:15:50.511Z,3.33
2022-09-29T06:18:16.957Z,3.78
2022-09-29T06:20:43.374Z,3.42
2022-09-29T06:23:09.816Z,5.10
2022-09-29T06:25:36.215Z,2.67
2022-09-29T06:28:02.870Z,2.78
2022-09-29T06:30:29.367Z,2.50
2022-09-29T06:32:55.831Z,5.13
2022-09-29T06:35:22.201Z,5.07
2022-09-29T06:37:48.593Z,3.13
2022-09-29T06:40:15.017Z,3.67
2022-09-29T06:42:41.455Z,5.32
2022-09-29T06:45:07.867Z,2.00
2022-09-29T06:47:34.241Z,2.55
2022-09-29T06:50:03.247Z,4.72
2022-09-29T06:52:30.142Z,3.53
2022-09-29T06:54:56.647Z,1.80
2022-09-29T06:57:23.032Z,3.55
2022-09-29T06:59:49.433Z,2.78
2022-09-29T07:02:15.870Z,5.57
2022-09-29T07:04:42.321Z,12.32
2022-09-29T07:07:08.768Z,6.00
2022-09-29T07:09:35.206Z,7.72
2022-09-29T07:12:01.578Z,4.38
2022-09-29T07:14:27.988Z,5.13
2022-09-29T07:16:54.423Z,4.20
2022-09-29T07:19:20.957Z,5.13
2022-09-29T07:21:47.411Z,2.95
2022-09-29T07:24:13.926Z,2.33
2022-09-29T07:26:42.516Z,3.15
2022-09-29T07:29:14.209Z,3.78
2022-09-29T07:31:50.025Z,3.20
2022-09-29T07:34:17.677Z,4.45
2022-09-29T07:36:44.065Z,4.00
2022-09-29T07:39:10.478Z,3.22
2022-09-29T07:41:36.860Z,4.55
2022-09-29T07:44:03.352Z,3.17
2022-09-29T07:46:29.902Z,3.80
2022-09-29T07:48:56.332Z,2.13
2022-09-29T07:51:22.750Z,4.95
2022-09-29T07:53:49.132Z,6.72
2022-09-29T07:56:15.531Z,5.07
2022-09-29T07:58:41.995Z,4.68
2022-09-29T08:01:08.498Z,4.72
2022-09-29T08:03:35.226Z,4.18
2022-09-29T08:06:01.693Z,2.97
2022-09-29T08:08:28.079Z,4.32
2022-09-29T08:10:54.512Z,3.30
2022-09-29T08:13:20.971Z,3.78
2022-09-29T08:15:47.352Z,3.03
2022-09-29T08:18:13.850Z,10.63
2022-09-29T08:20:40.265Z,2.22
2022-09-29T08:23:06.684Z,1.23
2022-09-29T08:25:33.101Z,2.78
2022-09-29T08:27:59.530Z,3.78
2022-09-29T08:30:25.957Z,1.52
2022-09-29T08:32:52.403Z,2.55
2022-09-29T08:35:18.824Z,2.97
2022-09-29T08:37:45.223Z,3.58
2022-09-29T08:40:11.629Z,2.80
2022-09-29T08:42:47.392Z,1.98
2022-09-29T08:45:16.597Z,2.20
2022-09-29T08:47:47.325Z,2.78
2022-09-29T08:50:14.163Z,1.75
2022-09-29T08:52:50.370Z,2.00
2022-09-29T08:55:21.687Z,1.63
2022-09-29T08:57:48.642Z,3.70
2022-09-29T09:00:15.042Z,2.38
2022-09-29T09:02:41.506Z,1.73
2022-09-29T09:05:07.893Z,1.00
2022-09-29T09:07:34.302Z,3.63
2022-09-29T09:10:00.711Z,1.80
2022-09-29T09:12:27.098Z,1.83
2022-09-29T09:14:53.488Z,1.60
2022-09-29T09:17:19.858Z,1.77
2022-09-29T09:19:46.328Z,1.55
2022-09-29T09:22:12.726Z,2.40
2022-09-29T09:24:39.120Z,1.92
2022-09-29T09:27:05.563Z,1.65
2022-09-29T09:29:37.412Z,1.85
2022-09-29T09:32:04.325Z,2.08
2022-09-29T09:34:41.597Z,5.82
2022-09-29T09:37:08.801Z,1.65
2022-09-29T09:39:35.319Z,2.08
2022-09-29T09:42:01.689Z,2.05
2022-09-29T09:44:28.132Z,1.52
2022-09-29T09:46:54.512Z,1.90
2022-09-29T09:49:21.003Z,2.60
2022-09-29T09:51:47.527Z,3.50
2022-09-29T09:54:13.984Z,2.42
2022-09-29T09:56:40.390Z,3.28
2022-09-29T09:59:06.833Z,2.83
2022-09-29T10:01:33.298Z,1.38
2022-09-29T10:03:59.806Z,1.75
2022-09-29T10:06:26.264Z,2.53
2022-09-29T10:08:52.666Z,4.90
2022-09-29T10:11:19.090Z,1.98
2022-09-29T10:13:45.507Z,1.65
2022-09-29T10:16:12.011Z,2.13
2022-09-29T10:18:38.512Z,1.92
2022-09-29T10:21:04.925Z,1.75
2022-09-29T10:23:31.311Z,1.27
2022-09-29T10:25:57.731Z,1.50
2022-09-29T10:28:24.133Z,2.40
2022-09-29T10:30:50.621Z,1.70
2022-09-29T10:33:17.032Z,2.47
2022-09-29T10:35:43.424Z,1.85
2022-09-29T10:38:09.834Z,1.50
2022-09-29T10:40:36.235Z,1.70
2022-09-29T10:43:02.677Z,2.75
2022-09-29T10:45:29.125Z,1.92
2022-09-29T10:47:55.513Z,5.50
2022-09-29T10:50:21.928Z,1.30
2022-09-29T10:52:48.315Z,2.13
2022-09-29T10:55:14.696Z,2.72
2022-09-29T10:57:41.102Z,1.73
2022-09-29T11:00:07.495Z,1.00
2022-09-29T11:02:33.974Z,3.60
2022-09-29T11:05:00.388Z,2.17
2022-09-29T11:07:26.818Z,4.15
2022-09-29T11:09:53.218Z,1.52
2022-09-29T11:12:19.681Z,1.05
2022-09-29T11:14:46.072Z,2.15
2022-09-29T11:17:12.484Z,2.22
2022-09-29T11:19:38.896Z,2.65
2022-09-29T11:22:05.353Z,1.80
2022-09-29T11:24:31.745Z,2.13
2022-09-29T11:26:58.154Z,1.73
2022-09-29T11:29:24.620Z,2.00
2022-09-29T11:31:51.085Z,2.50
2022-09-29T11:34:17.508Z,1.52
2022-09-29T11:36:43.899Z,2.10
2022-09-29T11:39:10.299Z,3.55
2022-09-29T11:41:36.729Z,4.72
2022-09-29T11:44:03.140Z,3.05
2022-09-29T11:46:29.523Z,3.35
2022-09-29T11:48:55.930Z,2.75
2022-09-29T11:51:22.332Z,2.20
2022-09-29T11:53:48.740Z,6.90
2022-09-29T11:56:15.166Z,2.47
2022-09-29T11:58:41.586Z,2.58
2022-09-29T12:01:08.022Z,3.03
2022-09-29T12:03:34.446Z,3.95
2022-09-29T12:06:00.843Z,2.60
2022-09-29T12:08:27.254Z,2.33
2022-09-29T12:10:53.698Z,2.92
2022-09-29T12:13:20.119Z,3.03
2022-09-29T12:15:46.517Z,2.45
2022-09-29T12:18:12.894Z,1.80
2022-09-29T12:20:39.304Z,3.30
2022-09-29T12:23:05.807Z,4.53
2022-09-29T12:25:32.233Z,4.25
2022-09-29T12:30:26.545Z,6.20
2022-09-29T12:32:53.121Z,1.73
2022-09-29T12:35:19.525Z,4.28
2022-09-29T12:37:45.963Z,1.48
2022-09-29T12:40:12.403Z,2.65
2022-09-29T12:42:38.789Z,4.70
2022-09-29T12:45:10.646Z,3.10
2022-09-29T12:47:37.326Z,3.88
2022-09-29T12:50:03.876Z,4.30
2022-09-29T12:52:30.372Z,4.13
2022-09-29T12:54:56.778Z,2.15
2022-09-29T12:57:23.216Z,1.83
2022-09-29T12:59:49.593Z,2.95
2022-09-29T13:02:16.033Z,3.97
2022-09-29T13:04:42.475Z,5.00
2022-09-29T13:07:08.882Z,2.90
2022-09-29T13:09:35.278Z,3.17
2022-09-29T13:12:01.832Z,2.22
2022-09-29T13:14:28.206Z,4.05
2022-09-29T13:16:54.632Z,3.30
2022-09-29T13:19:33.900Z,3.60
2022-09-29T13:22:06.112Z,2.10
2022-09-29T13:24:32.532Z,2.95
2022-09-29T13:26:58.897Z,1.80
2022-09-29T13:29:25.348Z,2.83
2022-09-29T13:31:51.759Z,4.57
2022-09-29T13:34:19.530Z,2.60
2022-09-29T13:36:46.093Z,3.63
2022-09-29T13:39:12.480Z,3.17
2022-09-29T13:41:38.883Z,4.43
2022-09-29T13:44:05.409Z,2.35
2022-09-29T13:46:31.834Z,5.60
2022-09-29T13:48:58.269Z,4.60
2022-09-29T13:51:24.643Z,3.58
2022-09-29T13:53:51.065Z,2.78
2022-09-29T13:56:17.452Z,4.00
2022-09-29T13:58:43.868Z,2.90
2022-09-29T14:01:10.262Z,4.85
2022-09-29T14:03:36.718Z,2.60
2022-09-29T14:06:17.169Z,2.53
2022-09-29T14:08:49.526Z,3.67
2022-09-29T14:11:15.907Z,4.05
2022-09-29T14:13:42.298Z,3.50
2022-09-29T14:16:08.756Z,3.70
2022-09-29T14:18:35.191Z,3.10
2022-09-29T14:21:01.607Z,3.35
2022-09-29T14:23:28.011Z,4.32
2022-09-29T14:25:54.410Z,3.80
2022-09-29T14:28:20.794Z,3.45
2022-09-29T14:30:47.287Z,5.55
2022-09-29T14:33:13.830Z,7.68
2022-09-29T14:35:40.266Z,4.35
2022-09-29T14:38:06.658Z,4.10
2022-09-29T14:40:33.093Z,3.72
2022-09-29T14:42:59.482Z,3.25
2022-09-29T14:45:25.891Z,4.10
2022-09-29T14:50:23.579Z,4.82
2022-09-29T14:52:50.020Z,5.07
2022-09-29T14:55:16.466Z,5.78
2022-09-29T14:57:42.897Z,5.93
2022-09-29T15:00:09.282Z,9.75
2022-09-29T15:02:35.725Z,4.93
2022-09-29T15:05:02.151Z,6.47
2022-09-29T15:07:28.588Z,5.47
2022-09-29T15:09:54.965Z,7.47
2022-09-29T15:12:21.384Z,6.45
2022-09-29T15:14:47.773Z,7.78
2022-09-29T15:17:14.230Z,6.97
2022-09-29T15:19:40.645Z,6.03
2022-09-29T15:22:07.052Z,4.18
2022-09-29T15:24:33.430Z,5.65
2022-09-29T15:26:59.846Z,4.95
2022-09-29T15:29:26.584Z,4.70
2022-09-29T15:31:53.121Z,6.15
2022-09-29T15:34:19.693Z,4.55
2022-09-29T15:36:46.196Z,7.00
2022-09-29T15:39:12.711Z,6.28
2022-09-29T15:41:39.110Z,6.43
2022-09-29T15:44:05.522Z,5.72
2022-09-29T15:46:32.003Z,5.80
2022-09-29T15:48:58.468Z,8.48
2022-09-29T15:51:24.857Z,6.25
2022-09-29T15:53:51.262Z,5.43
2022-09-29T15:56:17.659Z,5.85
2022-09-29T15:58:44.081Z,5.20
2022-09-29T16:01:10.564Z,7.38
2022-09-29T16:03:37.003Z,7.55
2022-09-29T16:06:03.395Z,5.82
2022-09-29T16:08:29.782Z,6.30
2022-09-29T16:10:56.166Z,6.72
2022-09-29T16:13:22.579Z,6.32
2022-09-29T16:15:49.029Z,6.65
2022-09-29T16:18:15.453Z,5.82
2022-09-29T16:20:41.830Z,9.57
2022-09-29T16:23:08.215Z,6.35
2022-09-29T16:25:34.633Z,6.35
2022-09-29T16:28:01.091Z,8.13
2022-09-29T16:30:27.525Z,6.55
2022-09-29T16:32:53.919Z,8.55
2022-09-29T16:35:20.331Z,7.47
2022-09-29T16:37:46.757Z,9.77
2022-09-29T16:40:13.172Z,6.18
2022-09-29T16:42:39.559Z,4.93
2022-09-29T16:45:05.975Z,8.02
2022-09-29T16:47:32.358Z,4.70
2022-09-29T16:49:58.791Z,3.78
2022-09-29T16:52:25.168Z,5.05
2022-09-29T16:54:51.548Z,4.80
2022-09-29T16:57:17.934Z,5.90
2022-09-29T16:59:44.343Z,6.22
2022-09-29T17:02:10.719Z,5.95
2022-09-29T17:04:37.104Z,6.65
2022-09-29T17:07:03.493Z,5.13
2022-09-29T17:09:29.942Z,5.68
2022-09-29T17:11:56.390Z,5.95
2022-09-29T17:14:22.771Z,7.18
2022-09-29T17:16:49.175Z,8.60
2022-09-29T17:19:15.555Z,6.85
2022-09-29T17:21:41.943Z,5.93
2022-09-29T17:24:08.318Z,6.85
2022-09-29T17:26:34.728Z,6.57
2022-09-29T17:29:01.102Z,9.93
2022-09-29T17:31:27.540Z,8.15
2022-09-29T17:33:53.992Z,6.97
2022-09-29T17:36:20.399Z,6.50
2022-09-29T17:38:46.774Z,5.65
2022-09-29T17:41:13.163Z,8.00
2022-09-29T17:43:39.562Z,6.75
2022-09-29T17:46:06.055Z,7.65
2022-09-29T17:48:32.445Z,6.60
2022-09-29T17:50:58.827Z,7.05
2022-09-29T17:53:25.207Z,6.75
2022-09-29T17:55:51.633Z,7.85
2022-09-29T17:58:18.021Z,9.57
2022-09-29T18:00:44.397Z,7.50
2022-09-29T18:03:10.919Z,6.07
2022-09-29T18:05:37.396Z,9.90
2022-09-29T18:08:03.848Z,8.75
2022-09-29T18:10:30.258Z,7.07
2022-09-29T18:12:56.646Z,8.07
2022-09-29T18:15:23.029Z,8.35
2022-09-29T18:17:49.438Z,4.70
2022-09-29T18:20:15.823Z,6.20
2022-09-29T18:22:42.216Z,5.78
2022-09-29T18:25:08.625Z,6.97
2022-09-29T18:27:35.037Z,6.53
2022-09-29T18:30:01.445Z,7.65
2022-09-29T18:32:27.846Z,6.85
2022-09-29T18:34:54.312Z,5.78
2022-09-29T18:37:20.865Z,8.77
2022-09-29T18:39:47.331Z,6.35
2022-09-29T18:42:13.803Z,8.60
2022-09-29T18:44:40.202Z,7.20
2022-09-29T18:47:06.645Z,8.27
2022-09-29T18:49:33.070Z,7.15
2022-09-29T18:51:59.543Z,9.65
2022-09-29T18:54:25.968Z,8.25
2022-09-29T18:56:54.642Z,7.05
2022-09-29T18:59:21.426Z,4.20
2022-09-29T19:01:47.932Z,4.90
2022-09-29T19:04:14.536Z,6.10
2022-09-29T19:06:40.933Z,5.18
2022-09-29T19:09:07.399Z,5.57
2022-09-29T19:11:33.835Z,6.50
2022-09-29T19:14:00.262Z,10.48
2022-09-29T19:16:26.715Z,8.65
2022-09-29T19:18:53.200Z,8.70
2022-09-29T19:21:19.689Z,9.93
2022-09-29T19:23:46.105Z,9.82
2022-09-29T19:26:12.490Z,9.18
2022-09-29T19:28:38.966Z,8.65
2022-09-29T19:31:05.418Z,9.73
2022-09-29T19:33:31.889Z,19.95
2022-09-29T19:35:58.279Z,12.98
2022-09-29T19:38:24.688Z,9.48
2022-09-29T19:40:51.082Z,12.50
2022-09-29T19:43:17.476Z,9.52
2022-09-29T19:45:44.089Z,9.13
2022-09-29T19:48:10.585Z,9.80
2022-09-29T19:50:37.182Z,11.60
2022-09-29T19:53:03.597Z,11.40
2022-09-29T19:55:30.094Z,11.55
2022-09-29T19:57:56.661Z,10.02
2022-09-29T20:00:23.076Z,9.73
2022-09-29T20:02:49.481Z,12.77
2022-09-29T20:05:15.909Z,12.07
2022-09-29T20:07:42.289Z,9.10
2022-09-29T20:10:08.728Z,10.18
2022-09-29T20:12:35.122Z,8.98
2022-09-29T20:15:01.550Z,10.00
2022-09-29T20:17:27.933Z,10.75
2022-09-29T20:19:54.332Z,10.05
2022-09-29T20:22:20.714Z,9.82
2022-09-29T20:24:47.116Z,9.07
2022-09-29T20:27:13.500Z,9.15
2022-09-29T20:29:39.899Z,9.27
2022-09-29T20:32:06.281Z,8.20
2022-09-29T20:34:32.686Z,9.32
2022-09-29T20:36:59.081Z,8.80
2022-09-29T20:39:25.598Z,9.18
2022-09-29T20:41:52.108Z,8.63
2022-09-29T20:44:18.608Z,10.00
2022-09-29T20:46:45.259Z,10.45
2022-09-29T20:49:11.706Z,9.80
2022-09-29T20:51:38.325Z,13.82
2022-09-29T20:54:04.825Z,9.65
2022-09-29T20:56:31.295Z,10.70
2022-09-29T20:58:57.694Z,9.32
2022-09-29T21:01:24.263Z,12.23
2022-09-29T21:03:50.698Z,7.80
2022-09-29T21:06:17.120Z,7.30
2022-09-29T21:08:43.509Z,7.82
2022-09-29T21:11:09.926Z,7.30
2022-09-29T21:13:36.321Z,7.47
2022-09-29T21:16:02.796Z,9.65
2022-09-29T21:18:29.221Z,7.32
2022-09-29T21:20:55.603Z,8.45
2022-09-29T21:23:22.045Z,7.38
2022-09-29T21:25:48.586Z,6.20
2022-09-29T21:28:15.106Z,7.65
2022-09-29T21:30:41.484Z,6.65
2022-09-29T21:33:07.894Z,6.30
2022-09-29T21:35:34.383Z,6.07
2022-09-29T21:38:00.857Z,7.07
2022-09-29T21:40:27.247Z,8.20
2022-09-29T21:42:53.673Z,5.82
2022-09-29T21:45:20.061Z,5.57
2022-09-29T21:47:46.500Z,6.88
2022-09-29T21:50:12.875Z,8.25
2022-09-29T21:52:39.285Z,6.75
2022-09-29T21:55:05.669Z,8.77
2022-09-29T21:57:32.070Z,8.10
2022-09-29T21:59:58.459Z,9.82
2022-09-29T22:02:24.986Z,10.18
2022-09-29T22:04:51.470Z,7.65
2022-09-29T22:07:17.868Z,7.63
2022-09-29T22:09:44.323Z,8.68
2022-09-29T22:12:10.796Z,7.57
2022-09-29T22:14:37.177Z,8.98
2022-09-29T22:17:03.582Z,8.57
2022-09-29T22:19:30.006Z,9.98
2022-09-29T22:21:56.379Z,9.68
2022-09-29T22:24:22.845Z,8.25
2022-09-29T22:26:49.234Z,9.55
2022-09-29T22:29:15.710Z,7.25
2022-09-29T22:31:42.261Z,6.50
2022-09-29T22:34:08.677Z,9.20
2022-09-29T22:36:35.068Z,9.50
2022-09-29T22:39:01.469Z,8.05
2022-09-29T22:41:27.911Z,8.55
2022-09-29T22:43:54.305Z,8.05
2022-09-29T22:46:20.739Z,6.65
2022-09-29T22:48:47.166Z,6.25
2022-09-29T22:51:13.546Z,7.70
2022-09-29T22:53:39.954Z,8.43
2022-09-29T22:56:06.340Z,6.10
2022-09-29T22:58:32.764Z,6.45
2022-09-29T23:00:59.163Z,6.97
2022-09-29T23:03:25.574Z,7.03
2022-09-29T23:05:52.006Z,7.18
2022-09-29T23:08:18.374Z,6.78
2022-09-29T23:10:44.789Z,6.63
2022-09-29T23:13:11.201Z,7.30
2022-09-29T23:15:37.601Z,7.35
2022-09-29T23:18:03.981Z,6.97
2022-09-29T23:20:30.393Z,6.15
2022-09-29T23:22:56.769Z,7.28
2022-09-29T23:25:23.174Z,6.30
2022-09-29T23:27:49.574Z,7.45
2022-09-29T23:30:15.980Z,7.05
2022-09-29T23:32:42.396Z,6.90
2022-09-29T23:35:08.799Z,8.02
2022-09-29T23:37:35.193Z,7.30
2022-09-29T23:40:01.602Z,6.95
2022-09-29T23:42:28.184Z,8.05
2022-09-29T23:44:54.592Z,9.27
2022-09-29T23:47:20.969Z,9.25
2022-09-29T23:49:47.349Z,8.77
2022-09-29T23:52:13.772Z,7.45
2022-09-29T23:54:40.182Z,7.95
2022-09-29T23:57:06.666Z,7.40
2022-09-29T23:59:33.045Z,8.55
